This is the latest recevied weather packets stored in our database for station/object W4BOD. If no packets are shown the sender has not sent any weather packets the latest 10 day(s).
| Time | Temp. | Humidity | Pressure | Rain* | Wind** | Luminosity | Snow |
|---|---|---|---|---|---|---|---|
| 1778070011 | 12.78° C | 99% | 1011.4 hPa | 0 mm | - | 21 W/m² | - |
| 1778069708 | 12.78° C | 99% | 1011.7 hPa | 0 mm | - | 12 W/m² | - |
| 1778069404 | 12.78° C | 99% | 1011.4 hPa | 0 mm | - | 9 W/m² | - |
| 1778069102 | 12.78° C | 99% | 1011.2 hPa | 1.78 mm | - | 13 W/m² | - |
| 1778068799 | 12.78° C | 99% | 1011 hPa | 1.78 mm | - | 18 W/m² | - |
| 1778068497 | 12.78° C | 99% | 1011.3 hPa | 0 mm | - | 7 W/m² | - |
| 1778068195 | 12.78° C | 99% | 1011.1 hPa | 0 mm | - | 3 W/m² | - |
| 1778067892 | 12.78° C | 99% | 1010.7 hPa | 0 mm | - | 4 W/m² | - |
| 1778067590 | 12.78° C | 99% | 1010.5 hPa | 0 mm | - | 4 W/m² | - |
| 1778027360 | 20.56° C | 73% | 1008.8 hPa | 0 mm | - | 2 W/m² | - |
| 1778027056 | 20.56° C | 73% | 1008.8 hPa | 0 mm | - | 2 W/m² | - |
| 1778026751 | 20.56° C | 72% | 1008.1 hPa | 0 mm | - | 1 W/m² | - |
| 1778026449 | 20° C | 72% | 1008.1 hPa | 0 mm | - | 2 W/m² | - |
| 1778026146 | 20° C | 73% | 1008 hPa | 0 mm | - | 5 W/m² | - |
| 1778025844 | 19.44° C | 75% | 1007.9 hPa | 0 mm | - | 6 W/m² | - |
| 1778025540 | 18.89° C | 80% | 1008.1 hPa | 0 mm | - | 6 W/m² | - |
| 1778025238 | 18.89° C | 82% | 1008 hPa | 0 mm | - | 6 W/m² | - |
| 1778024934 | 18.89° C | 80% | 1008.3 hPa | 0 mm | - | 8 W/m² | - |
| 1778024632 | 18.89° C | 84% | 1008.4 hPa | 0 mm | - | 8 W/m² | - |
| 1778024329 | 18.89° C | 84% | 1008.3 hPa | 0 mm | - | 8 W/m² | - |
| 1778024027 | 18.89° C | 83% | 1008.2 hPa | 0 mm | - | 7 W/m² | - |
| 1778023724 | 18.89° C | 82% | 1008.3 hPa | 0 mm | - | 14 W/m² | - |
| 1778023422 | 18.89° C | 84% | 1008.1 hPa | 0 mm | - | 15 W/m² | - |
| 1778023118 | 18.89° C | 77% | 1008.1 hPa | 0 mm | - | 15 W/m² | - |
| 1778022816 | 18.89° C | 77% | 1008.1 hPa | 0 mm | - | 16 W/m² | - |
* Rain latest hour (hover to see other rain measurements)
** Current wind speed in m/s (hover to see current wind gust speed)